createdAt,value
2022-08-18T00:01:19.366Z,48.20
2022-08-18T00:03:00.901Z,47.08
2022-08-18T00:04:41.953Z,49.31
2022-08-18T00:06:21.119Z,49.57
2022-08-18T00:07:52.855Z,49.13
2022-08-18T00:09:27.761Z,51.87
2022-08-18T00:11:01.898Z,49.26
2022-08-18T00:12:38.398Z,48.77
2022-08-18T00:14:10.436Z,50.67
2022-08-18T00:15:49.083Z,49.98
2022-08-18T00:17:21.093Z,50.06
2022-08-18T00:18:52.968Z,52.50
2022-08-18T00:20:24.722Z,50.65
2022-08-18T00:21:56.459Z,51.85
2022-08-18T00:23:28.184Z,52.44
2022-08-18T00:24:59.969Z,51.50
2022-08-18T00:26:36.337Z,50.64
2022-08-18T00:28:08.725Z,53.01
2022-08-18T00:29:45.330Z,52.74
2022-08-18T00:31:17.239Z,53.79
2022-08-18T00:32:49.173Z,53.21
2022-08-18T00:34:21.121Z,52.35
2022-08-18T00:35:52.685Z,54.57
2022-08-18T00:37:24.319Z,52.87
2022-08-18T00:38:56.392Z,54.14
2022-08-18T00:40:28.186Z,54.81
2022-08-18T00:41:59.889Z,53.40
2022-08-18T00:43:31.532Z,52.97
2022-08-18T00:45:03.415Z,52.94
2022-08-18T00:46:35.124Z,53.48
2022-08-18T00:48:06.854Z,54.93
2022-08-18T00:49:43.564Z,53.38
2022-08-18T00:51:20.375Z,51.00
2022-08-18T00:53:04.525Z,52.48
2022-08-18T00:54:36.163Z,55.47
2022-08-18T00:56:08.069Z,56.96
2022-08-18T00:57:39.802Z,56.09
2022-08-18T00:59:11.730Z,55.64
2022-08-18T01:00:53.486Z,56.86
2022-08-18T01:02:25.285Z,57.39
2022-08-18T01:04:02.275Z,56.34
2022-08-18T01:05:34.544Z,55.64
2022-08-18T01:07:06.336Z,55.32
2022-08-18T01:08:43.649Z,55.89
2022-08-18T01:10:21.341Z,56.85
2022-08-18T01:11:52.989Z,57.93
2022-08-18T01:13:34.864Z,58.92
2022-08-18T01:15:06.784Z,54.96
2022-08-18T01:16:38.565Z,56.92
2022-08-18T01:18:24.015Z,54.92
2022-08-18T01:19:55.561Z,55.56
2022-08-18T01:21:27.210Z,55.13
2022-08-18T01:22:59.096Z,55.97
2022-08-18T01:24:30.858Z,56.99
2022-08-18T01:26:02.530Z,56.39
2022-08-18T01:27:34.538Z,58.12
2022-08-18T01:29:06.457Z,61.18
2022-08-18T01:30:38.658Z,59.01
2022-08-18T01:32:10.277Z,60.41
2022-08-18T01:33:42.233Z,60.44
2022-08-18T01:35:13.994Z,59.45
2022-08-18T01:36:46.297Z,60.97
2022-08-18T01:38:17.746Z,63.36
2022-08-18T01:41:23.093Z,62.64
2022-08-18T01:42:59.737Z,62.74
2022-08-18T01:44:31.428Z,63.12
2022-08-18T01:46:03.244Z,65.13
2022-08-18T01:47:47.363Z,65.53
2022-08-18T01:49:20.110Z,68.65
2022-08-18T01:50:51.809Z,70.14
2022-08-18T01:52:23.390Z,70.52
2022-08-18T01:53:55.629Z,67.68
2022-08-18T01:55:27.309Z,67.27
2022-08-18T01:56:59.238Z,69.98
2022-08-18T01:58:31.837Z,69.59
2022-08-18T02:00:03.684Z,67.05
2022-08-18T02:01:36.789Z,67.60
2022-08-18T02:03:08.803Z,68.44
2022-08-18T02:04:45.563Z,69.65
2022-08-18T02:06:17.401Z,69.39
2022-08-18T02:08:04.354Z,67.49
2022-08-18T02:09:36.043Z,67.44
2022-08-18T02:11:07.541Z,63.49
2022-08-18T02:12:39.247Z,65.51
2022-08-18T02:14:10.845Z,63.75
2022-08-18T02:15:42.949Z,65.25
2022-08-18T02:17:14.869Z,63.61
2022-08-18T02:18:48.336Z,63.52
2022-08-18T02:20:20.459Z,65.36
2022-08-18T02:21:52.307Z,62.63
2022-08-18T02:23:24.159Z,63.78
2022-08-18T02:24:55.818Z,63.12
2022-08-18T02:26:27.566Z,61.09
2022-08-18T02:27:59.292Z,63.36
2022-08-18T02:29:31.034Z,64.95
2022-08-18T02:31:02.665Z,61.85
2022-08-18T02:32:34.221Z,65.88
2022-08-18T02:34:05.899Z,63.89
2022-08-18T02:35:37.457Z,65.45
2022-08-18T02:37:13.113Z,64.88
2022-08-18T02:38:56.791Z,63.24
2022-08-18T02:40:31.332Z,62.94
2022-08-18T02:42:03.007Z,61.18
2022-08-18T02:43:37.703Z,63.08
2022-08-18T02:45:09.806Z,67.40
2022-08-18T02:46:41.847Z,64.40
2022-08-18T02:48:18.775Z,63.23
2022-08-18T02:49:50.837Z,65.89
2022-08-18T02:51:22.591Z,63.79
2022-08-18T02:52:58.234Z,62.41
2022-08-18T02:54:29.992Z,62.15
2022-08-18T02:56:06.624Z,62.23
2022-08-18T02:57:38.413Z,62.45
2022-08-18T02:59:10.088Z,60.73
2022-08-18T03:00:41.697Z,61.32
2022-08-18T03:02:18.343Z,67.67
2022-08-18T03:03:50.205Z,72.03
2022-08-18T03:05:21.758Z,76.57
2022-08-18T03:06:53.814Z,77.93
2022-08-18T03:08:25.803Z,83.34
2022-08-18T03:09:59.883Z,81.91
2022-08-18T03:11:36.209Z,83.30
2022-08-18T03:13:08.254Z,79.65
2022-08-18T03:14:41.134Z,79.04
2022-08-18T03:16:13.933Z,80.41
2022-08-18T03:17:46.140Z,76.21
2022-08-18T03:19:18.174Z,75.13
2022-08-18T03:20:49.917Z,76.55
2022-08-18T03:22:27.606Z,74.96
2022-08-18T03:24:02.862Z,77.57
2022-08-18T03:25:34.884Z,75.20
2022-08-18T03:27:06.710Z,75.46
2022-08-18T03:28:38.465Z,76.38
2022-08-18T03:30:11.301Z,78.32
2022-08-18T03:31:43.446Z,75.39
2022-08-18T03:33:15.422Z,72.53
2022-08-18T03:34:47.021Z,74.78
2022-08-18T03:36:19.088Z,74.88
2022-08-18T03:37:51.116Z,75.30
2022-08-18T03:39:22.856Z,73.85
2022-08-18T03:40:54.803Z,76.34
2022-08-18T03:42:26.741Z,75.78
2022-08-18T03:43:58.775Z,78.05
2022-08-18T03:45:30.470Z,76.60
2022-08-18T03:47:02.730Z,72.49
2022-08-18T03:48:34.506Z,74.44
2022-08-18T03:50:06.589Z,74.86
2022-08-18T03:51:38.445Z,72.91
2022-08-18T03:53:10.267Z,74.10
2022-08-18T03:54:42.534Z,72.99
2022-08-18T03:56:14.146Z,71.21
2022-08-18T03:57:50.137Z,71.92
2022-08-18T03:59:22.111Z,73.32
2022-08-18T04:00:53.991Z,74.91
2022-08-18T04:02:25.716Z,73.56
2022-08-18T04:03:57.405Z,78.67
2022-08-18T04:05:29.178Z,81.90
2022-08-18T04:07:01.114Z,83.02
2022-08-18T04:08:32.894Z,88.45
2022-08-18T04:10:39.901Z,89.64
2022-08-18T04:12:15.420Z,90.70
2022-08-18T04:13:53.952Z,90.46
2022-08-18T04:15:30.709Z,86.42
2022-08-18T04:17:02.951Z,88.07
2022-08-18T04:18:34.578Z,88.79
2022-08-18T04:20:06.400Z,89.20
2022-08-18T04:21:38.270Z,90.48
2022-08-18T04:23:10.152Z,92.09
2022-08-18T04:24:41.852Z,90.60
2022-08-18T04:26:19.353Z,92.97
2022-08-18T04:27:51.377Z,93.38
2022-08-18T04:29:23.360Z,91.94
2022-08-18T04:30:55.198Z,91.20
2022-08-18T04:32:30.037Z,94.30
2022-08-18T04:34:02.241Z,97.57
2022-08-18T04:35:33.712Z,100.63
2022-08-18T04:37:07.086Z,100.07
2022-08-18T04:38:38.692Z,104.70
2022-08-18T04:40:10.472Z,103.84
2022-08-18T04:41:44.791Z,106.06
2022-08-18T04:43:16.343Z,107.25
2022-08-18T04:44:48.502Z,106.41
2022-08-18T04:46:20.255Z,108.21
2022-08-18T04:47:56.298Z,111.21
2022-08-18T04:49:29.099Z,109.76
2022-08-18T04:51:01.225Z,109.91
2022-08-18T04:52:41.723Z,112.07
2022-08-18T04:54:13.959Z,111.95
2022-08-18T04:55:45.633Z,112.60
2022-08-18T04:57:17.497Z,110.92
2022-08-18T04:58:49.255Z,108.05
2022-08-18T05:00:22.323Z,109.14
2022-08-18T05:01:54.154Z,107.69
2022-08-18T05:03:25.933Z,105.97
2022-08-18T05:04:57.793Z,110.46
2022-08-18T05:06:29.544Z,111.19
2022-08-18T05:08:06.734Z,111.54
2022-08-18T05:09:41.159Z,106.02
2022-08-18T05:11:13.083Z,109.23
2022-08-18T05:12:44.813Z,111.04
2022-08-18T05:14:16.567Z,109.40
2022-08-18T05:16:09.494Z,113.73
2022-08-18T05:17:42.628Z,112.72
2022-08-18T05:19:14.270Z,117.69
2022-08-18T05:20:51.043Z,116.34
2022-08-18T05:22:28.810Z,119.47
2022-08-18T05:24:02.943Z,120.93
2022-08-18T05:25:34.637Z,120.16
2022-08-18T05:27:06.159Z,123.53
2022-08-18T05:28:37.754Z,120.86
2022-08-18T05:30:09.387Z,119.57
2022-08-18T05:31:41.301Z,121.13
2022-08-18T05:33:12.982Z,119.91
2022-08-18T05:34:44.665Z,125.39
2022-08-18T05:36:16.512Z,126.27
2022-08-18T05:37:48.509Z,126.51
2022-08-18T05:39:20.167Z,129.45
2022-08-18T05:40:52.144Z,131.18
2022-08-18T05:42:24.176Z,133.61
2022-08-18T05:43:57.070Z,130.48
2022-08-18T05:45:33.851Z,132.84
2022-08-18T05:47:05.645Z,127.12
2022-08-18T05:48:42.739Z,129.66
2022-08-18T05:50:15.849Z,128.23
2022-08-18T05:51:47.600Z,127.29
2022-08-18T05:53:20.505Z,127.36
2022-08-18T05:54:52.713Z,133.79
2022-08-18T05:56:24.236Z,126.91
2022-08-18T05:57:56.136Z,127.83
2022-08-18T05:59:27.753Z,128.60
2022-08-18T06:01:00.275Z,129.13
2022-08-18T06:02:31.984Z,129.59
2022-08-18T06:04:03.687Z,128.45
2022-08-18T06:05:35.396Z,125.74
2022-08-18T06:07:06.942Z,128.66
2022-08-18T06:08:38.710Z,124.75
2022-08-18T06:10:10.713Z,128.61
2022-08-18T06:11:42.984Z,121.20
2022-08-18T06:13:14.832Z,124.33
2022-08-18T06:14:46.700Z,122.94
2022-08-18T06:16:18.336Z,122.48
2022-08-18T06:17:55.145Z,116.65
2022-08-18T06:19:26.808Z,117.27
2022-08-18T06:20:58.741Z,114.58
2022-08-18T06:22:31.430Z,110.29
2022-08-18T06:24:03.150Z,107.67
2022-08-18T06:25:35.543Z,110.26
2022-08-18T06:27:07.169Z,112.21
2022-08-18T06:28:38.876Z,105.33
2022-08-18T06:30:10.709Z,106.85
2022-08-18T06:31:47.563Z,104.57
2022-08-18T06:33:19.302Z,104.54
2022-08-18T06:34:51.154Z,107.86
2022-08-18T06:36:26.530Z,112.85
2022-08-18T06:37:58.405Z,111.46
2022-08-18T06:39:30.328Z,111.66
2022-08-18T06:41:02.211Z,116.21
2022-08-18T06:42:40.621Z,118.91
2022-08-18T06:44:12.447Z,113.98
2022-08-18T06:45:48.944Z,120.38
2022-08-18T06:47:20.696Z,125.17
2022-08-18T06:48:52.574Z,131.40
2022-08-18T06:50:29.200Z,128.17
2022-08-18T06:52:01.191Z,126.93
2022-08-18T06:53:32.786Z,129.68
2022-08-18T06:55:04.589Z,127.54
2022-08-18T06:56:36.242Z,126.17
2022-08-18T06:58:08.057Z,122.50
2022-08-18T06:59:39.896Z,124.45
2022-08-18T07:01:11.682Z,123.03
2022-08-18T07:02:48.213Z,125.36
2022-08-18T07:04:19.974Z,119.48
2022-08-18T07:05:51.744Z,121.37
2022-08-18T07:07:28.893Z,121.08
2022-08-18T07:09:12.284Z,117.72
2022-08-18T07:10:44.103Z,118.37
2022-08-18T07:12:15.603Z,115.13
2022-08-18T07:13:54.939Z,116.70
2022-08-18T07:15:41.469Z,119.00
2022-08-18T07:17:13.339Z,113.62
2022-08-18T07:18:44.884Z,115.40
2022-08-18T07:20:16.754Z,116.57
2022-08-18T07:21:48.409Z,111.34
2022-08-18T07:23:20.030Z,110.76
2022-08-18T07:24:51.572Z,109.34
2022-08-18T07:26:23.139Z,108.83
2022-08-18T07:27:55.044Z,112.34
2022-08-18T07:29:26.923Z,110.07
2022-08-18T07:31:15.835Z,105.90
2022-08-18T07:32:48.621Z,102.90
2022-08-18T07:34:20.403Z,105.41
2022-08-18T07:35:52.390Z,103.22
2022-08-18T07:37:28.648Z,101.63
2022-08-18T07:39:01.614Z,104.81
2022-08-18T07:40:33.455Z,104.49
2022-08-18T07:42:05.447Z,105.07
2022-08-18T07:43:37.541Z,102.77
2022-08-18T07:45:09.329Z,100.81
2022-08-18T07:46:46.036Z,104.14
2022-08-18T07:48:37.227Z,103.51
2022-08-18T07:50:27.093Z,105.31
2022-08-18T07:52:35.847Z,104.46
2022-08-18T07:54:37.786Z,110.71
2022-08-18T07:56:19.216Z,114.26
2022-08-18T07:57:50.881Z,119.09
2022-08-18T07:59:22.856Z,119.55
2022-08-18T08:00:59.333Z,113.88
2022-08-18T08:02:31.334Z,117.88
2022-08-18T08:04:03.435Z,115.66
2022-08-18T08:05:35.265Z,116.07
2022-08-18T08:07:23.935Z,117.28
2022-08-18T08:08:56.792Z,113.81
2022-08-18T08:10:28.479Z,113.51
2022-08-18T08:12:00.318Z,113.26
2022-08-18T08:13:54.176Z,111.49
2022-08-18T08:15:27.309Z,108.87
2022-08-18T08:16:59.077Z,110.21
2022-08-18T08:18:30.812Z,108.49
2022-08-18T08:20:02.882Z,105.86
2022-08-18T08:21:34.949Z,107.07
2022-08-18T08:23:07.005Z,107.63
2022-08-18T08:24:38.751Z,104.31
2022-08-18T08:26:15.531Z,104.77
2022-08-18T08:27:47.278Z,101.60
2022-08-18T08:29:18.890Z,102.11
2022-08-18T08:30:50.850Z,98.68
2022-08-18T08:32:23.006Z,98.42
2022-08-18T08:33:54.774Z,97.66
2022-08-18T08:35:48.482Z,99.42
2022-08-18T08:37:21.900Z,96.69
2022-08-18T08:38:53.629Z,96.02
2022-08-18T08:40:25.456Z,98.86
2022-08-18T08:42:07.317Z,96.21
2022-08-18T08:44:03.713Z,98.08
2022-08-18T08:45:36.789Z,97.50
2022-08-18T08:47:08.706Z,96.35
2022-08-18T08:48:40.460Z,97.38
2022-08-18T08:50:12.201Z,97.11
2022-08-18T08:51:43.812Z,90.81
2022-08-18T08:53:15.591Z,92.54
2022-08-18T08:54:47.523Z,91.56
2022-08-18T08:56:24.463Z,91.55
2022-08-18T08:57:56.160Z,90.26
2022-08-18T08:59:28.045Z,89.76
2022-08-18T09:01:04.643Z,85.64
2022-08-18T09:02:47.700Z,85.20
2022-08-18T09:04:20.366Z,86.63
2022-08-18T09:05:56.606Z,86.78
2022-08-18T09:07:35.738Z,88.83
2022-08-18T09:09:10.115Z,81.17
2022-08-18T09:10:41.927Z,81.72
2022-08-18T09:12:13.897Z,78.16
2022-08-18T09:13:45.412Z,80.50
2022-08-18T09:15:16.992Z,82.26
2022-08-18T09:16:48.825Z,81.81
2022-08-18T09:18:21.131Z,82.24
2022-08-18T09:19:52.920Z,79.37
2022-08-18T09:21:24.765Z,76.97
2022-08-18T09:23:01.563Z,78.69
2022-08-18T09:24:33.340Z,76.18
2022-08-18T09:26:04.907Z,76.59
2022-08-18T09:27:53.866Z,75.52
2022-08-18T09:29:44.305Z,77.00
2022-08-18T09:31:19.656Z,73.57
2022-08-18T09:32:51.905Z,74.77
2022-08-18T09:34:24.416Z,73.54
2022-08-18T09:35:56.236Z,70.90
2022-08-18T09:37:29.520Z,71.47
2022-08-18T09:39:01.831Z,71.59
2022-08-18T13:06:22.600Z,41.75
2022-08-18T13:07:59.422Z,41.56
2022-08-18T13:09:35.089Z,39.22
2022-08-18T13:11:25.094Z,40.87
2022-08-18T13:12:58.417Z,37.30
2022-08-18T13:14:30.639Z,38.28
2022-08-18T13:16:03.787Z,38.16
2022-08-18T13:17:35.660Z,35.72
2022-08-18T13:19:18.142Z,35.52
2022-08-18T13:20:49.994Z,31.69
2022-08-18T13:22:24.205Z,31.52
2022-08-18T13:24:04.358Z,31.00
2022-08-18T13:25:39.891Z,30.18
2022-08-18T13:27:18.565Z,28.84
2022-08-18T13:28:57.296Z,28.29
2022-08-18T13:30:31.780Z,27.93
2022-08-18T13:32:03.925Z,26.79
2022-08-18T13:33:56.662Z,30.59
2022-08-18T13:35:30.119Z,27.61
2022-08-18T13:37:09.456Z,26.40
2022-08-18T13:38:41.986Z,25.33
2022-08-18T13:40:15.129Z,26.51
2022-08-18T13:41:51.172Z,30.69
2022-08-18T13:43:24.399Z,29.17
2022-08-18T13:44:57.154Z,23.86
2022-08-18T13:46:30.984Z,27.42
2022-08-18T13:48:03.193Z,24.11
2022-08-18T13:49:35.923Z,24.72
2022-08-18T13:51:08.314Z,23.94
2022-08-18T13:52:45.301Z,23.76
2022-08-18T13:54:30.849Z,23.57
2022-08-18T13:56:02.745Z,24.97
2022-08-18T13:57:35.755Z,21.03
2022-08-18T13:59:07.491Z,21.86
2022-08-18T14:00:39.785Z,23.54
2022-08-18T14:02:11.652Z,20.44
2022-08-18T14:03:47.342Z,20.68
2022-08-18T14:05:19.591Z,21.26
2022-08-18T14:06:56.229Z,19.99
2022-08-18T14:08:29.751Z,19.50
2022-08-18T14:10:13.512Z,19.88
2022-08-18T14:11:45.419Z,19.31
2022-08-18T14:13:24.769Z,19.34
2022-08-18T14:15:07.038Z,17.60
2022-08-18T14:16:38.813Z,15.19
2022-08-18T14:18:14.994Z,14.87
2022-08-18T14:19:48.107Z,15.63
2022-08-18T14:21:22.977Z,13.60
2022-08-18T14:22:55.200Z,14.42
2022-08-18T14:24:26.940Z,15.08
2022-08-18T14:25:59.747Z,12.24
2022-08-18T14:27:37.323Z,12.84
2022-08-18T14:29:11.213Z,12.86
2022-08-18T14:30:50.619Z,13.18
2022-08-18T14:32:29.102Z,14.35
2022-08-18T14:34:06.469Z,11.69
2022-08-18T14:36:06.678Z,11.95
2022-08-18T14:37:41.102Z,13.08
2022-08-18T14:39:12.921Z,12.78
2022-08-18T14:40:45.674Z,13.80
2022-08-18T14:42:40.917Z,13.00
2022-08-18T14:44:15.390Z,11.22
2022-08-18T14:45:49.122Z,9.94
2022-08-18T14:47:32.093Z,11.43
2022-08-18T14:49:28.175Z,10.32
2022-08-18T14:51:03.040Z,10.92
2022-08-18T14:52:34.871Z,10.86
2022-08-18T14:54:30.687Z,10.06
2022-08-18T14:56:07.274Z,8.47
2022-08-18T14:57:41.787Z,8.47
2022-08-18T14:59:17.258Z,9.56
2022-08-18T15:00:54.153Z,8.64
2022-08-18T15:02:27.975Z,8.75
2022-08-18T15:03:59.689Z,8.18
2022-08-18T15:05:50.588Z,10.68
2022-08-18T15:07:27.432Z,8.09
2022-08-18T15:08:59.210Z,7.33
2022-08-18T15:10:31.042Z,8.84
2022-08-18T15:12:03.292Z,7.61
2022-08-18T15:13:35.727Z,7.38
2022-08-18T15:15:17.833Z,7.56
2022-08-18T15:16:50.052Z,7.41
2022-08-18T15:18:22.775Z,7.71
2022-08-18T15:19:59.922Z,7.28
2022-08-18T15:21:35.451Z,7.35
2022-08-18T15:23:10.538Z,6.20
2022-08-18T15:24:43.278Z,6.47
2022-08-18T15:26:15.271Z,6.74
2022-08-18T15:27:47.400Z,6.36
2022-08-18T15:29:27.974Z,6.72
2022-08-18T15:31:17.057Z,6.55
2022-08-18T15:32:49.749Z,7.42
2022-08-18T15:34:21.685Z,5.62
2022-08-18T15:35:59.491Z,5.41
2022-08-18T15:37:31.169Z,4.96
2022-08-18T15:39:05.316Z,5.48
2022-08-18T15:40:41.580Z,5.83
2022-08-18T15:42:15.484Z,6.27
2022-08-18T15:43:48.727Z,6.00
2022-08-18T15:45:26.576Z,6.54
2022-08-18T15:46:58.438Z,5.69
2022-08-18T15:48:30.818Z,5.99
2022-08-18T15:50:06.813Z,6.11
2022-08-18T15:51:54.324Z,6.04
2022-08-18T15:53:30.002Z,6.52
2022-08-18T15:55:02.601Z,5.87
2022-08-18T15:56:34.618Z,6.48
2022-08-18T15:58:12.453Z,5.71
2022-08-18T15:59:44.194Z,6.64
2022-08-18T16:01:32.248Z,6.72
2022-08-18T16:03:04.775Z,6.46
2022-08-18T16:04:40.733Z,5.46
2022-08-18T16:06:18.143Z,5.40
2022-08-18T16:07:57.781Z,6.16
2022-08-18T16:09:29.797Z,6.14
2022-08-18T16:11:01.667Z,5.50
2022-08-18T16:12:33.343Z,7.06
2022-08-18T16:14:05.278Z,5.47
2022-08-18T16:15:37.070Z,5.54
2022-08-18T16:17:17.964Z,6.31
2022-08-18T16:18:55.840Z,6.73
2022-08-18T16:20:27.584Z,7.47
2022-08-18T16:22:04.353Z,6.20
2022-08-18T16:23:36.996Z,6.44
2022-08-18T16:25:09.091Z,6.62
2022-08-18T16:26:40.713Z,5.76
2022-08-18T16:28:12.464Z,5.38
2022-08-18T16:29:44.115Z,6.05
2022-08-18T16:31:15.961Z,5.44
2022-08-18T16:32:47.575Z,6.04
2022-08-18T16:34:19.299Z,5.25
2022-08-18T16:35:51.020Z,6.51
2022-08-18T16:37:22.735Z,5.55
2022-08-18T16:38:59.372Z,4.86
2022-08-18T16:40:31.076Z,4.80
2022-08-18T16:42:02.815Z,6.80
2022-08-18T16:43:34.587Z,5.09
2022-08-18T16:45:06.371Z,5.14
2022-08-18T16:46:38.180Z,5.06
2022-08-18T16:48:16.859Z,4.70
2022-08-18T16:49:49.155Z,4.81
2022-08-18T16:51:20.850Z,7.05
2022-08-18T16:52:57.565Z,5.56
2022-08-18T16:54:29.581Z,4.53
2022-08-18T16:56:01.523Z,6.96
2022-08-18T16:57:53.765Z,5.56
2022-08-18T16:59:27.363Z,4.88
2022-08-18T17:01:04.125Z,5.31
2022-08-18T17:02:35.910Z,7.05
2022-08-18T17:04:13.612Z,5.79
2022-08-18T17:05:52.041Z,6.14
2022-08-18T17:07:23.985Z,5.36
2022-08-18T17:08:55.676Z,6.99
2022-08-18T17:10:27.707Z,5.79
2022-08-18T17:11:59.401Z,5.67
2022-08-18T17:13:36.021Z,5.86
2022-08-18T17:15:08.104Z,5.79
2022-08-18T17:16:39.738Z,7.43
2022-08-18T17:18:35.739Z,5.97
2022-08-18T17:20:11.073Z,5.86
2022-08-18T17:21:42.966Z,5.32
2022-08-18T17:23:24.703Z,4.68
2022-08-18T17:24:56.565Z,5.70
2022-08-18T17:26:28.281Z,5.30
2022-08-18T17:28:00.836Z,7.07
2022-08-18T17:29:33.213Z,12.59
2022-08-18T17:31:09.952Z,6.75
2022-08-18T17:32:56.918Z,6.41
2022-08-18T17:34:43.605Z,6.59
2022-08-18T17:36:15.365Z,14.73
2022-08-18T17:37:52.369Z,5.89
2022-08-18T17:39:34.013Z,5.85
2022-08-18T17:41:06.041Z,4.72
2022-08-18T17:42:43.059Z,5.10
2022-08-18T17:44:14.682Z,5.73
2022-08-18T17:45:51.772Z,5.06
2022-08-18T17:47:23.884Z,5.50
2022-08-18T17:48:55.591Z,4.88
2022-08-18T17:50:32.274Z,6.20
2022-08-18T17:52:09.165Z,6.79
2022-08-18T17:53:45.792Z,5.05
2022-08-18T17:55:19.786Z,6.72
2022-08-18T17:56:51.902Z,5.50
2022-08-18T17:58:33.508Z,7.88
2022-08-18T18:00:05.592Z,7.51
2022-08-18T18:01:38.910Z,5.70
2022-08-18T18:03:13.172Z,6.40
2022-08-18T18:04:45.535Z,6.22
2022-08-18T18:06:17.260Z,6.09
2022-08-18T18:07:48.853Z,7.42
2022-08-18T18:09:20.430Z,6.34
2022-08-18T18:11:05.082Z,7.03
2022-08-18T18:12:37.346Z,6.46
2022-08-18T18:14:09.279Z,5.40
2022-08-18T18:15:50.233Z,5.02
2022-08-18T18:17:40.913Z,5.24
2022-08-18T18:19:12.948Z,7.11
2022-08-18T18:20:44.527Z,7.23
2022-08-18T18:22:16.332Z,6.07
2022-08-18T18:23:48.091Z,6.24
2022-08-18T18:25:19.780Z,5.63
2022-08-18T18:26:56.553Z,5.77
2022-08-18T18:28:28.396Z,6.22
2022-08-18T18:30:00.445Z,5.40
2022-08-18T18:31:32.074Z,5.52
2022-08-18T18:33:09.075Z,6.55
2022-08-18T18:34:40.622Z,5.26
2022-08-18T18:36:12.202Z,5.71
2022-08-18T18:37:43.941Z,5.95
2022-08-18T18:39:19.428Z,6.56
2022-08-18T18:40:51.161Z,5.72
2022-08-18T18:42:22.823Z,5.37
2022-08-18T18:43:59.817Z,5.55
2022-08-18T18:45:31.697Z,5.28
2022-08-18T18:47:03.801Z,6.52
2022-08-18T18:48:48.343Z,6.46
2022-08-18T18:50:24.118Z,5.37
2022-08-18T18:51:55.779Z,6.24
2022-08-18T18:53:27.543Z,5.20
2022-08-18T18:54:59.329Z,5.12
2022-08-18T18:56:31.350Z,6.10
2022-08-18T18:58:03.557Z,6.99
2022-08-18T18:59:35.544Z,5.48
2022-08-18T19:01:45.033Z,7.20
2022-08-18T19:03:16.891Z,7.17
2022-08-18T19:04:49.002Z,7.50
2022-08-18T19:06:20.855Z,7.83
2022-08-18T19:07:53.240Z,6.06
2022-08-18T19:09:30.349Z,7.66
2022-08-18T19:11:01.959Z,8.33
2022-08-18T19:12:33.920Z,8.49
2022-08-18T19:14:07.302Z,6.83
2022-08-18T19:15:40.157Z,7.25
2022-08-18T19:17:11.829Z,7.86
2022-08-18T19:18:43.831Z,7.34
2022-08-18T19:20:29.334Z,9.22
2022-08-18T19:22:05.656Z,10.02
2022-08-18T19:23:44.961Z,7.27
2022-08-18T19:25:17.060Z,8.84
2022-08-18T19:26:53.706Z,7.69
2022-08-18T19:28:25.240Z,9.42
2022-08-18T19:29:56.920Z,8.50
2022-08-18T19:31:28.933Z,8.95
2022-08-18T19:33:00.493Z,7.80
2022-08-18T19:34:33.801Z,8.16
2022-08-18T19:36:19.335Z,8.75
2022-08-18T19:37:51.304Z,7.51
2022-08-18T19:39:23.468Z,10.41
2022-08-18T19:41:06.333Z,8.43
2022-08-18T19:42:42.518Z,7.97
2022-08-18T19:44:14.199Z,7.69
2022-08-18T19:46:01.453Z,8.59
2022-08-18T19:47:33.109Z,9.85
2022-08-18T19:49:04.874Z,8.55
2022-08-18T19:50:36.561Z,9.13
2022-08-18T19:52:46.719Z,8.00
2022-08-18T19:54:19.210Z,8.25
2022-08-18T19:55:51.155Z,8.43
2022-08-18T19:57:27.825Z,11.18
2022-08-18T19:59:15.488Z,8.36
2022-08-18T20:00:50.620Z,9.07
2022-08-18T20:02:28.819Z,8.40
2022-08-18T20:04:01.479Z,10.68
2022-08-18T20:05:33.198Z,9.61
2022-08-18T20:07:10.134Z,7.81
2022-08-18T20:08:41.669Z,9.58
2022-08-18T20:10:13.374Z,8.67
2022-08-18T20:11:45.218Z,9.86
2022-08-18T20:13:16.694Z,9.93
2022-08-18T20:14:48.550Z,7.85
2022-08-18T20:16:20.472Z,9.25
2022-08-18T20:17:53.211Z,7.51
2022-08-18T20:19:25.230Z,9.56
2022-08-18T20:20:57.332Z,8.94
2022-08-18T20:22:28.892Z,7.53
2022-08-18T20:24:00.484Z,8.67
2022-08-18T20:25:32.111Z,7.38
2022-08-18T20:27:03.672Z,7.77
2022-08-18T20:28:35.353Z,8.89
2022-08-18T20:30:07.154Z,8.97
2022-08-18T20:31:39.010Z,8.13
2022-08-18T20:33:10.452Z,6.84
2022-08-18T20:34:47.261Z,8.20
2022-08-18T20:36:18.954Z,9.99
2022-08-18T20:37:50.872Z,8.17
2022-08-18T20:39:26.031Z,7.94
2022-08-18T20:41:00.527Z,8.98
2022-08-18T20:42:32.036Z,7.67
2022-08-18T20:44:03.818Z,12.05
2022-08-18T20:45:42.558Z,10.76
2022-08-18T20:47:18.253Z,10.12
2022-08-18T20:48:49.956Z,10.32
2022-08-18T20:50:22.767Z,10.58
2022-08-18T20:51:54.550Z,8.59
2022-08-18T20:53:26.499Z,8.94
2022-08-18T20:55:03.038Z,8.51
2022-08-18T20:56:48.251Z,7.63
2022-08-18T20:58:21.592Z,8.62
2022-08-18T20:59:53.384Z,9.16
2022-08-18T21:01:25.283Z,8.16
2022-08-18T21:02:57.238Z,7.92
2022-08-18T21:04:29.020Z,8.13
2022-08-18T21:06:00.939Z,10.27
2022-08-18T21:07:36.027Z,10.33
2022-08-18T21:09:08.716Z,10.15
2022-08-18T21:10:45.688Z,11.92
2022-08-18T21:12:17.228Z,12.28
2022-08-18T21:13:51.506Z,13.32
2022-08-18T21:15:24.757Z,9.46
2022-08-18T21:16:56.751Z,9.82
2022-08-18T21:18:33.763Z,11.23
2022-08-18T21:20:05.480Z,11.28
2022-08-18T21:21:37.158Z,10.74
2022-08-18T21:23:09.279Z,10.87
2022-08-18T21:24:40.848Z,11.15
2022-08-18T21:26:12.604Z,9.49
2022-08-18T21:27:49.257Z,10.91
2022-08-18T21:29:26.335Z,12.94
2022-08-18T21:31:42.144Z,11.58
2022-08-18T21:33:16.095Z,13.18
2022-08-18T21:34:47.805Z,12.23
2022-08-18T21:36:19.562Z,11.08
2022-08-18T21:37:51.340Z,11.63
2022-08-18T21:39:23.238Z,12.81
2022-08-18T21:40:55.039Z,13.02
2022-08-18T21:42:31.614Z,11.98
2022-08-18T21:44:03.608Z,8.98
2022-08-18T21:45:43.602Z,9.78
2022-08-18T21:47:23.829Z,10.59
2022-08-18T21:48:56.391Z,10.75
2022-08-18T21:50:28.021Z,10.55
2022-08-18T21:51:59.628Z,9.00
2022-08-18T21:53:31.263Z,9.73
2022-08-18T21:55:03.212Z,9.26
2022-08-18T21:56:35.281Z,10.95
2022-08-18T21:58:06.965Z,11.48
2022-08-18T21:59:39.100Z,9.47
2022-08-18T22:01:11.152Z,10.34
2022-08-18T22:02:43.145Z,14.14
2022-08-18T22:04:15.073Z,14.61
2022-08-18T22:05:58.073Z,11.42
2022-08-18T22:07:34.424Z,10.26
2022-08-18T22:09:07.332Z,10.30
2022-08-18T22:10:38.985Z,11.50
2022-08-18T22:12:10.886Z,10.90
2022-08-18T22:13:42.709Z,10.54
2022-08-18T22:15:14.373Z,8.88
2022-08-18T22:16:51.097Z,9.24
2022-08-18T22:18:22.861Z,9.96
2022-08-18T22:19:54.833Z,11.15
2022-08-18T22:21:26.635Z,9.56
2022-08-18T22:22:58.328Z,9.08
2022-08-18T22:24:29.882Z,9.54
2022-08-18T22:26:01.778Z,10.17
2022-08-18T22:27:33.455Z,8.94
2022-08-18T22:29:11.853Z,9.00
2022-08-18T22:30:43.586Z,11.21
2022-08-18T22:32:15.460Z,9.87
2022-08-18T22:33:47.938Z,9.34
2022-08-18T22:35:20.107Z,9.08
2022-08-18T22:36:52.763Z,12.35
2022-08-18T22:38:29.605Z,10.70
2022-08-18T22:40:01.423Z,9.47
2022-08-18T22:41:32.914Z,11.53
2022-08-18T22:43:04.508Z,9.53
2022-08-18T22:44:36.407Z,11.65
2022-08-18T22:46:08.523Z,12.76
2022-08-18T22:47:42.828Z,10.90
2022-08-18T22:49:16.604Z,11.05
2022-08-18T22:50:48.721Z,10.60
2022-08-18T22:52:20.336Z,10.67
2022-08-18T22:54:06.940Z,11.01
2022-08-18T22:55:38.592Z,13.01
2022-08-18T22:57:10.399Z,10.90
2022-08-18T22:58:42.463Z,9.34
2022-08-18T23:00:16.437Z,10.23
2022-08-18T23:01:48.321Z,9.98
2022-08-18T23:03:20.765Z,11.12
2022-08-18T23:04:57.422Z,8.82
2022-08-18T23:06:29.142Z,9.26
2022-08-18T23:08:00.784Z,9.72
2022-08-18T23:09:32.744Z,10.41
2022-08-18T23:11:05.146Z,8.24
2022-08-18T23:12:37.511Z,9.88
2022-08-18T23:14:09.368Z,8.15
2022-08-18T23:15:41.199Z,8.59
2022-08-18T23:17:17.952Z,9.64
2022-08-18T23:18:50.915Z,10.56
2022-08-18T23:20:22.592Z,8.82
2022-08-18T23:21:58.765Z,11.81
2022-08-18T23:23:30.348Z,10.95
2022-08-18T23:25:08.818Z,10.23
2022-08-18T23:26:41.123Z,9.68
2022-08-18T23:28:13.127Z,9.88
2022-08-18T23:29:45.157Z,10.41
2022-08-18T23:31:22.396Z,11.52
2022-08-18T23:32:54.029Z,11.84
2022-08-18T23:34:30.981Z,12.02
2022-08-18T23:36:07.723Z,11.52
2022-08-18T23:37:39.401Z,10.96
2022-08-18T23:39:11.377Z,11.30
2022-08-18T23:40:43.341Z,9.81
2022-08-18T23:42:22.323Z,10.55
2022-08-18T23:43:54.796Z,10.51
2022-08-18T23:45:27.001Z,12.68
2022-08-18T23:46:58.726Z,14.27
2022-08-18T23:48:30.460Z,12.28
2022-08-18T23:50:02.606Z,11.90